Time;durP1;ratioP1;P1;durP2;ratioP2;P2;SDS_P1;SDS_P2;PMS_P1;PMS_P2;Temp;Humidity;BMP_temperature;BMP_pressure;BME280_temperature;BME280_humidity;BME280_pressure;Samples;Min_cycle;Max_cycle;Signal;HPM_P1;HPM_P2
2021/07/23 00:02:00;;;;;;;13.40;9.57;;;;;;;;;;5075030;28;20460;-61
2021/07/23 00:04:32;;;;;;;13.00;8.87;;;;;;;;;;5075296;28;20467;-61
2021/07/23 00:06:59;;;;;;;10.80;8.73;;;;;;;;;;5054965;28;20453;-62
2021/07/23 00:09:27;;;;;;;13.47;8.10;;;;;;;;;;5072939;28;20488;-61
2021/07/23 00:11:55;;;;;;;14.90;7.70;;;;;;;;;;5094852;28;20543;-61
2021/07/23 00:14:25;;;;;;;13.90;11.10;;;;;;;;;;5081065;28;20777;-60
2021/07/23 00:16:53;;;;;;;10.17;7.70;;;;;;;;;;5072581;28;20448;-59
2021/07/23 00:19:30;;;;;;;11.10;8.07;;;;;;;;;;5095780;28;20539;-64
2021/07/23 00:21:59;;;;;;;8.67;7.03;;;;;;;;;;5092725;28;20513;-60
2021/07/23 00:24:26;;;;;;;11.00;8.10;;;;;;;;;;5094895;28;20463;-59
2021/07/23 00:26:54;;;;;;;14.10;9.53;;;;;;;;;;5088530;28;20466;-60
2021/07/23 00:29:21;;;;;;;11.43;8.60;;;;;;;;;;5095179;28;20503;-62
2021/07/23 00:31:50;;;;;;;14.10;8.80;;;;;;;;;;5094148;28;20869;-61
2021/07/23 00:34:17;;;;;;;11.90;9.30;;;;;;;;;;5094989;28;20459;-61
2021/07/23 00:36:54;;;;;;;11.73;9.07;;;;;;;;;;5082522;28;20459;-61
2021/07/23 00:39:21;;;;;;;13.47;9.17;;;;;;;;;;5088344;28;20493;-61
2021/07/23 00:41:48;;;;;;;11.57;9.77;;;;;;;;;;5094669;28;20487;-60
2021/07/23 00:44:15;;;;;;;17.83;9.50;;;;;;;;;;5093852;28;20488;-60
2021/07/23 00:46:43;;;;;;;13.63;8.53;;;;;;;;;;5095529;28;20470;-61
2021/07/23 00:49:13;;;;;;;15.17;8.30;;;;;;;;;;5095440;28;20438;-61
2021/07/23 00:51:40;;;;;;;10.87;8.83;;;;;;;;;;5095226;28;20442;-61
2021/07/23 00:54:08;;;;;;;16.53;9.10;;;;;;;;;;5095564;28;20491;-61
2021/07/23 00:56:49;;;;;;;12.07;8.73;;;;;;;;;;5094736;28;20481;-59
2021/07/23 00:59:17;;;;;;;16.97;8.67;;;;;;;;;;5090988;28;20494;-61
2021/07/23 01:01:44;;;;;;;11.13;8.80;;;;;;;;;;5076374;28;20430;-57
2021/07/23 01:04:13;;;;;;;13.80;8.60;;;;;;;;;;5076856;28;20647;-60
2021/07/23 01:06:41;;;;;;;11.60;8.87;;;;;;;;;;5075345;28;20497;-60
2021/07/23 01:09:11;;;;;;;18.90;10.33;;;;;;;;;;5074639;28;20500;-58
2021/07/23 01:11:39;;;;;;;10.30;9.07;;;;;;;;;;5075217;28;20488;-62
2021/07/23 01:14:07;;;;;;;13.50;8.90;;;;;;;;;;5075182;28;20457;-61
2021/07/23 01:16:34;;;;;;;11.27;9.53;;;;;;;;;;5074880;28;20458;-60
2021/07/23 01:19:02;;;;;;;13.13;9.90;;;;;;;;;;5074298;28;20471;-61
2021/07/23 01:21:31;;;;;;;15.47;9.47;;;;;;;;;;5090945;28;20474;-60
2021/07/23 01:24:12;;;;;;;10.87;8.20;;;;;;;;;;5093747;28;20471;-60
2021/07/23 01:26:39;;;;;;;16.80;8.43;;;;;;;;;;5076206;28;20456;-60
2021/07/23 01:29:06;;;;;;;12.27;8.67;;;;;;;;;;5094446;28;20487;-59
2021/07/23 01:31:35;;;;;;;15.80;10.33;;;;;;;;;;5089340;28;20467;-59
2021/07/23 01:34:02;;;;;;;12.97;9.07;;;;;;;;;;5076817;28;20494;-60
2021/07/23 01:36:30;;;;;;;12.33;9.60;;;;;;;;;;5075037;28;20470;-59
2021/07/23 01:39:16;;;;;;;12.87;9.00;;;;;;;;;;5075056;28;20480;-58
2021/07/23 01:41:46;;;;;;;12.47;8.50;;;;;;;;;;5073912;28;20454;-60
2021/07/23 01:44:15;;;;;;;12.70;8.60;;;;;;;;;;5074536;28;20442;-63
2021/07/23 01:46:44;;;;;;;13.60;10.10;;;;;;;;;;5074021;28;20451;-61
2021/07/23 01:49:15;;;;;;;14.90;9.63;;;;;;;;;;5067939;28;20458;-60
2021/07/23 01:51:43;;;;;;;11.40;8.43;;;;;;;;;;5054879;28;20493;-59
2021/07/23 01:54:16;;;;;;;16.53;11.43;;;;;;;;;;5054256;28;20520;-58
2021/07/23 01:56:44;;;;;;;12.67;8.87;;;;;;;;;;5054921;28;20499;-59
2021/07/23 01:59:11;;;;;;;15.80;10.03;;;;;;;;;;5060301;28;20731;-57
2021/07/23 02:01:44;;;;;;;12.10;8.73;;;;;;;;;;5073899;28;20545;-58
2021/07/23 02:04:12;;;;;;;14.13;9.13;;;;;;;;;;5073901;28;20476;-61
2021/07/23 02:06:39;;;;;;;14.80;9.50;;;;;;;;;;5074019;28;20518;-61
2021/07/23 02:09:13;;;;;;;11.80;9.00;;;;;;;;;;5065957;28;20471;-60
2021/07/23 02:11:44;;;;;;;20.83;8.00;;;;;;;;;;5054391;28;20442;-60
2021/07/23 02:14:12;;;;;;;16.20;9.47;;;;;;;;;;5057843;28;20457;-60
2021/07/23 02:16:58;;;;;;;12.10;8.60;;;;;;;;;;5066276;28;20457;-59
2021/07/23 02:19:26;;;;;;;11.10;8.50;;;;;;;;;;5073835;28;20476;-59
2021/07/23 02:21:55;;;;;;;13.77;9.47;;;;;;;;;;5048795;28;20458;-61
2021/07/23 02:27:33;;;;;;;11.10;8.93;;;;;;;;;;5101602;28;20502;-61
2021/07/23 02:30:05;;;;;;;17.80;8.53;;;;;;;;;;5086799;28;20436;-62
2021/07/23 02:32:39;;;;;;;11.47;8.67;;;;;;;;;;5103361;28;20474;-59
2021/07/23 02:35:08;;;;;;;14.90;8.90;;;;;;;;;;5100006;28;20497;-61
2021/07/23 02:37:35;;;;;;;11.27;8.23;;;;;;;;;;5094562;28;20490;-59
2021/07/23 02:40:13;;;;;;;12.57;9.27;;;;;;;;;;5095255;28;20517;-61
2021/07/23 02:42:41;;;;;;;14.50;9.37;;;;;;;;;;5096009;28;20447;-62
2021/07/23 02:45:12;;;;;;;13.80;9.33;;;;;;;;;;5098368;28;20534;-61
2021/07/23 02:47:43;;;;;;;11.93;8.23;;;;;;;;;;5098068;28;20457;-62
2021/07/23 02:50:11;;;;;;;14.80;9.37;;;;;;;;;;5098529;28;20471;-59
2021/07/23 02:52:38;;;;;;;13.40;9.03;;;;;;;;;;5098251;28;20486;-61
2021/07/23 02:55:24;;;;;;;16.03;9.50;;;;;;;;;;5097961;28;20447;-61
2021/07/23 02:57:53;;;;;;;13.57;8.43;;;;;;;;;;5083139;28;20519;-61
2021/07/23 03:00:23;;;;;;;16.73;9.33;;;;;;;;;;5081889;28;20491;-61
2021/07/23 03:02:57;;;;;;;11.33;8.27;;;;;;;;;;5098192;28;20519;-60
2021/07/23 03:05:25;;;;;;;13.90;9.37;;;;;;;;;;5098754;28;20451;-61
2021/07/23 03:07:54;;;;;;;17.20;8.53;;;;;;;;;;5092958;28;20486;-60
2021/07/23 03:10:25;;;;;;;10.60;8.23;;;;;;;;;;5078610;28;20512;-60
2021/07/23 03:12:53;;;;;;;13.90;8.33;;;;;;;;;;5091974;28;20480;-58
2021/07/23 03:15:21;;;;;;;13.03;8.40;;;;;;;;;;5099404;28;20436;-60
2021/07/23 03:17:49;;;;;;;12.47;9.50;;;;;;;;;;5098752;28;20462;-61
2021/07/23 03:20:17;;;;;;;11.70;8.17;;;;;;;;;;5098206;28;20480;-61
2021/07/23 03:22:45;;;;;;;9.90;7.30;;;;;;;;;;5097785;28;20444;-59
2021/07/23 03:25:29;;;;;;;11.97;8.13;;;;;;;;;;5098387;28;20493;-59
2021/07/23 03:27:58;;;;;;;12.10;7.67;;;;;;;;;;5097779;28;20460;-61
2021/07/23 03:30:27;;;;;;;11.03;8.03;;;;;;;;;;5083658;28;20448;-60
2021/07/23 03:33:26;;;;;;;10.33;7.50;;;;;;;;;;5083563;28;20457;-58
2021/07/23 03:35:53;;;;;;;10.00;7.77;;;;;;;;;;5128300;28;20504;-59
2021/07/23 03:38:21;;;;;;;14.90;8.00;;;;;;;;;;5135088;28;20463;-60
2021/07/23 03:41:07;;;;;;;13.83;9.33;;;;;;;;;;5125538;28;20506;-61
2021/07/23 03:43:36;;;;;;;16.60;8.47;;;;;;;;;;5120148;28;20459;-60
2021/07/23 03:48:46;;;;;;;12.50;8.43;;;;;;;;;;5132421;28;20454;-59
2021/07/23 03:51:14;;;;;;;14.67;9.10;;;;;;;;;;5118505;28;20434;-59
2021/07/23 03:53:59;;;;;;;13.00;9.77;;;;;;;;;;5116338;28;20479;-60
2021/07/23 03:56:26;;;;;;;10.50;8.63;;;;;;;;;;5117019;28;20469;-61
2021/07/23 03:58:55;;;;;;;13.00;8.27;;;;;;;;;;5119488;28;20451;-61
2021/07/23 04:01:25;;;;;;;11.13;8.27;;;;;;;;;;5121220;28;20490;-58
2021/07/23 04:03:53;;;;;;;11.10;9.30;;;;;;;;;;5092624;28;20492;-61
2021/07/23 04:06:21;;;;;;;11.23;8.40;;;;;;;;;;5077643;28;20472;-60
2021/07/23 04:08:56;;;;;;;11.37;8.90;;;;;;;;;;5057488;28;20438;-58
2021/07/23 04:11:28;;;;;;;11.63;8.23;;;;;;;;;;5063890;28;20479;-63
2021/07/23 04:13:57;;;;;;;13.50;8.10;;;;;;;;;;5068487;28;20453;-61
2021/07/23 04:16:24;;;;;;;12.33;8.30;;;;;;;;;;5072492;28;20469;-60
2021/07/23 04:18:51;;;;;;;11.27;8.37;;;;;;;;;;5074194;28;20472;-59
2021/07/23 04:21:26;;;;;;;15.30;9.60;;;;;;;;;;5075668;28;20493;-61
2021/07/23 04:23:54;;;;;;;15.27;8.33;;;;;;;;;;5075947;28;20723;-60
2021/07/23 04:26:21;;;;;;;10.07;7.83;;;;;;;;;;5074673;28;20484;-61
2021/07/23 04:29:09;;;;;;;15.17;9.30;;;;;;;;;;5075767;28;20526;-62
2021/07/23 04:31:38;;;;;;;11.80;8.17;;;;;;;;;;5078044;28;20465;-60
2021/07/23 04:34:06;;;;;;;13.30;8.40;;;;;;;;;;5066099;28;20458;-60
2021/07/23 04:36:41;;;;;;;11.80;8.03;;;;;;;;;;5065241;28;20496;-60
2021/07/23 04:39:08;;;;;;;10.33;8.73;;;;;;;;;;5075048;28;20477;-58
2021/07/23 04:41:38;;;;;;;10.40;7.97;;;;;;;;;;5076774;28;20504;-59
2021/07/23 04:44:05;;;;;;;13.20;8.23;;;;;;;;;;5076508;28;20445;-61
2021/07/23 04:46:33;;;;;;;11.30;8.53;;;;;;;;;;5066202;28;20427;-62
2021/07/23 04:52:06;;;;;;;8.63;7.03;;;;;;;;;;5069452;28;20543;-60
2021/07/23 04:54:34;;;;;;;11.97;7.83;;;;;;;;;;5105735;28;20482;-60
2021/07/23 04:57:12;;;;;;;11.60;9.27;;;;;;;;;;5106037;28;20493;-62
2021/07/23 04:59:41;;;;;;;11.50;7.70;;;;;;;;;;5116890;28;20464;-59
2021/07/23 05:02:09;;;;;;;10.30;7.97;;;;;;;;;;5117040;28;20475;-61
2021/07/23 05:04:37;;;;;;;14.13;8.03;;;;;;;;;;5116197;28;20485;-59
2021/07/23 05:07:06;;;;;;;12.73;7.40;;;;;;;;;;5116686;28;20448;-58
2021/07/23 05:09:33;;;;;;;9.43;7.73;;;;;;;;;;5100458;28;20475;-59
2021/07/23 05:12:14;;;;;;;9.70;7.60;;;;;;;;;;5096694;28;20430;-60
2021/07/23 05:14:43;;;;;;;11.60;7.73;;;;;;;;;;5096195;28;20462;-61
2021/07/23 05:17:10;;;;;;;13.63;8.53;;;;;;;;;;5096479;28;20453;-58
2021/07/23 05:19:57;;;;;;;9.80;6.70;;;;;;;;;;5096916;28;20462;-60
2021/07/23 05:22:26;;;;;;;15.10;7.77;;;;;;;;;;5094855;28;20514;-59
2021/07/23 05:24:54;;;;;;;12.57;8.23;;;;;;;;;;5096398;28;20454;-60
2021/07/23 05:27:21;;;;;;;10.80;7.70;;;;;;;;;;5091048;28;20447;-62
2021/07/23 05:29:48;;;;;;;12.83;8.37;;;;;;;;;;5086890;28;20464;-61
2021/07/23 05:32:24;;;;;;;16.53;8.53;;;;;;;;;;5096253;28;20442;-61
2021/07/23 05:34:58;;;;;;;12.63;7.83;;;;;;;;;;5080948;28;20683;-60
2021/07/23 05:37:26;;;;;;;11.80;8.20;;;;;;;;;;5095367;28;20461;-60
2021/07/23 05:40:03;;;;;;;10.40;8.03;;;;;;;;;;5080846;28;20451;-62
2021/07/23 05:42:30;;;;;;;13.10;8.23;;;;;;;;;;5095342;28;20521;-57
2021/07/23 05:44:58;;;;;;;12.10;8.47;;;;;;;;;;5095395;28;20468;-60
2021/07/23 05:47:45;;;;;;;11.17;7.97;;;;;;;;;;5094543;28;20444;-58
2021/07/23 05:50:16;;;;;;;10.33;8.03;;;;;;;;;;5076712;28;20429;-59
2021/07/23 05:53:07;;;;;;;18.50;12.80;;;;;;;;;;5076097;28;20469;-58
2021/07/23 05:55:58;;;;;;;12.57;7.90;;;;;;;;;;5076173;28;20453;-58
2021/07/23 05:58:26;;;;;;;13.13;8.30;;;;;;;;;;5091631;28;20504;-58
2021/07/23 06:00:54;;;;;;;10.37;8.20;;;;;;;;;;5095413;28;20451;-59
2021/07/23 06:03:21;;;;;;;11.37;9.57;;;;;;;;;;5093626;28;20459;-60
2021/07/23 06:05:50;;;;;;;13.47;8.97;;;;;;;;;;5087872;28;20466;-61
2021/07/23 06:08:24;;;;;;;12.30;8.47;;;;;;;;;;5082198;28;20448;-59
2021/07/23 06:10:51;;;;;;;10.60;8.17;;;;;;;;;;5095992;28;20460;-59
2021/07/23 06:13:18;;;;;;;13.83;9.10;;;;;;;;;;5092657;28;20444;-59
2021/07/23 06:15:58;;;;;;;12.23;8.23;;;;;;;;;;5088871;28;20456;-62
2021/07/23 06:18:27;;;;;;;12.00;8.80;;;;;;;;;;5108227;28;20520;-61
2021/07/23 06:20:55;;;;;;;11.50;8.27;;;;;;;;;;5110293;28;20463;-59
2021/07/23 06:23:41;;;;;;;11.93;9.20;;;;;;;;;;5107035;28;20471;-59
2021/07/23 06:26:11;;;;;;;12.53;9.07;;;;;;;;;;5103453;28;20487;-60
2021/07/23 06:28:44;;;;;;;13.47;8.60;;;;;;;;;;5102463;28;20453;-60
2021/07/23 06:31:23;;;;;;;12.93;9.30;;;;;;;;;;5112947;28;20493;-60
2021/07/23 06:33:54;;;;;;;10.90;7.60;;;;;;;;;;5115848;28;20462;-59
2021/07/23 06:39:26;;;;;;;13.23;7.50;;;;;;;;;;5114814;28;20457;-62
2021/07/23 06:41:56;;;;;;;10.57;9.00;;;;;;;;;;5101486;28;20467;-59
2021/07/23 06:44:56;;;;;;;17.03;10.80;;;;;;;;;;5113612;28;20451;-59
2021/07/23 06:47:35;;;;;;;11.10;8.60;;;;;;;;;;5114488;28;20435;-60
2021/07/23 06:50:07;;;;;;;13.83;8.87;;;;;;;;;;5110323;28;20447;-62
2021/07/23 06:52:57;;;;;;;13.63;9.80;;;;;;;;;;5097974;28;20443;-60
2021/07/23 06:55:28;;;;;;;15.17;9.17;;;;;;;;;;5113401;28;20537;-61
2021/07/23 06:57:59;;;;;;;13.23;9.40;;;;;;;;;;5115652;28;20447;-59
2021/07/23 07:00:49;;;;;;;11.73;9.20;;;;;;;;;;5114239;28;20458;-61
2021/07/23 07:03:17;;;;;;;11.73;9.50;;;;;;;;;;5082508;28;20475;-62
2021/07/23 07:05:51;;;;;;;19.23;9.80;;;;;;;;;;5061539;28;20454;-59
2021/07/23 07:08:22;;;;;;;14.03;10.70;;;;;;;;;;5054605;28;20504;-59
2021/07/23 07:10:50;;;;;;;13.53;10.80;;;;;;;;;;5054418;28;20454;-59
2021/07/23 07:13:46;;;;;;;15.57;10.30;;;;;;;;;;5070916;28;20468;-59
2021/07/23 07:16:13;;;;;;;14.60;9.93;;;;;;;;;;5060004;28;20449;-60
2021/07/23 07:18:41;;;;;;;16.20;10.90;;;;;;;;;;5069923;28;20495;-61
2021/07/23 07:21:08;;;;;;;17.07;10.03;;;;;;;;;;5074032;28;20450;-62
2021/07/23 07:23:36;;;;;;;13.30;9.03;;;;;;;;;;5074701;28;20549;-59
2021/07/23 07:29:10;;;;;;;13.30;10.13;;;;;;;;;;5094267;28;20501;-60
2021/07/23 07:31:38;;;;;;;13.80;9.90;;;;;;;;;;5115923;28;20463;-59
2021/07/23 07:34:08;;;;;;;14.17;10.37;;;;;;;;;;5106847;28;20583;-61
2021/07/23 07:36:36;;;;;;;16.73;10.60;;;;;;;;;;5118535;28;20507;-59
2021/07/23 07:39:16;;;;;;;14.60;9.60;;;;;;;;;;5118345;28;20488;-59
2021/07/23 07:41:43;;;;;;;12.70;9.93;;;;;;;;;;5116004;28;20468;-62
2021/07/23 07:44:14;;;;;;;13.80;10.20;;;;;;;;;;5118096;28;20481;-59
2021/07/23 07:47:14;;;;;;;14.27;9.50;;;;;;;;;;5117240;28;20443;-58
2021/07/23 07:55:17;;;;;;;14.77;11.50;;;;;;;;;;5067925;28;20461;-59
2021/07/23 07:58:27;;;;;;;14.60;9.17;;;;;;;;;;5077960;28;20455;-64
2021/07/23 08:01:23;;;;;;;14.77;10.50;;;;;;;;;;5070203;28;20562;-65
2021/07/23 08:04:04;;;;;;;17.50;11.93;;;;;;;;;;5077309;28;20465;-59
2021/07/23 08:06:35;;;;;;;16.30;11.70;;;;;;;;;;5059587;28;20458;-62
2021/07/23 08:09:08;;;;;;;17.13;14.50;;;;;;;;;;5066580;28;20445;-59
2021/07/23 08:11:36;;;;;;;16.10;11.63;;;;;;;;;;5015783;28;20434;-61
2021/07/23 08:14:05;;;;;;;16.53;12.57;;;;;;;;;;5057913;28;20444;-58
2021/07/23 08:21:55;;;;;;;16.13;11.70;;;;;;;;;;5099321;28;20816;-62
2021/07/23 08:24:23;;;;;;;15.83;12.10;;;;;;;;;;5117245;28;20624;-62
2021/07/23 08:27:09;;;;;;;17.30;12.53;;;;;;;;;;5114782;28;20459;-64
2021/07/23 08:29:36;;;;;;;14.40;10.70;;;;;;;;;;5109298;28;20487;-63
2021/07/23 08:32:20;;;;;;;18.20;12.33;;;;;;;;;;5118248;28;20447;-62
2021/07/23 08:34:48;;;;;;;18.70;11.83;;;;;;;;;;5116552;28;20534;-62
2021/07/23 08:37:24;;;;;;;13.07;11.07;;;;;;;;;;5115259;28;20467;-61
2021/07/23 08:39:52;;;;;;;14.07;11.13;;;;;;;;;;5117864;28;20442;-61
2021/07/23 08:42:30;;;;;;;16.23;10.93;;;;;;;;;;5117725;28;20543;-59
2021/07/23 08:45:01;;;;;;;11.97;9.80;;;;;;;;;;5102721;28;20450;-59
2021/07/23 08:47:52;;;;;;;16.00;12.23;;;;;;;;;;5113129;28;20505;-60
2021/07/23 08:50:22;;;;;;;16.30;10.83;;;;;;;;;;5084811;28;20485;-62
2021/07/23 08:52:54;;;;;;;14.57;10.37;;;;;;;;;;5057164;28;20468;-60
2021/07/23 08:55:26;;;;;;;13.07;10.40;;;;;;;;;;5038976;28;20483;-61
2021/07/23 08:57:59;;;;;;;18.20;12.13;;;;;;;;;;5076880;28;20475;-60
2021/07/23 09:00:34;;;;;;;16.97;11.57;;;;;;;;;;5066969;28;20418;-58
2021/07/23 09:03:02;;;;;;;13.27;10.60;;;;;;;;;;5056976;28;20476;-59
2021/07/23 09:05:31;;;;;;;14.77;10.00;;;;;;;;;;5056588;28;20441;-60
2021/07/23 09:08:15;;;;;;;18.63;13.13;;;;;;;;;;5039198;28;20438;-58
2021/07/23 09:10:43;;;;;;;11.63;9.60;;;;;;;;;;5056599;28;20465;-57
2021/07/23 09:13:11;;;;;;;12.20;9.33;;;;;;;;;;5056932;28;20446;-63
2021/07/23 09:15:58;;;;;;;19.43;11.57;;;;;;;;;;5061570;28;20456;-57
2021/07/23 09:18:28;;;;;;;16.20;9.90;;;;;;;;;;5076923;28;20456;-61
2021/07/23 09:21:03;;;;;;;14.77;11.70;;;;;;;;;;5076650;28;20441;-61
2021/07/23 09:23:51;;;;;;;16.30;9.90;;;;;;;;;;5075938;28;20502;-64
2021/07/23 09:26:18;;;;;;;15.63;10.80;;;;;;;;;;5069368;28;20458;-58
2021/07/23 09:28:47;;;;;;;13.40;11.37;;;;;;;;;;5075310;28;20441;-59
2021/07/23 09:31:31;;;;;;;13.73;10.97;;;;;;;;;;5076232;28;20488;-62
2021/07/23 09:34:00;;;;;;;12.80;9.53;;;;;;;;;;5085105;28;20491;-60
2021/07/23 09:36:29;;;;;;;13.77;10.00;;;;;;;;;;5078236;28;20483;-59
2021/07/23 09:39:28;;;;;;;13.60;9.83;;;;;;;;;;5088851;28;20457;-60
2021/07/23 09:42:06;;;;;;;14.53;9.77;;;;;;;;;;5080082;28;20479;-60
2021/07/23 09:44:43;;;;;;;15.40;10.70;;;;;;;;;;5080180;28;20441;-60
2021/07/23 09:47:25;;;;;;;12.60;10.20;;;;;;;;;;5084988;28;20455;-59
2021/07/23 09:49:52;;;;;;;13.90;9.47;;;;;;;;;;5076752;28;20616;-58
2021/07/23 09:52:28;;;;;;;14.77;10.73;;;;;;;;;;5075226;28;20467;-64
2021/07/23 09:54:55;;;;;;;16.70;11.37;;;;;;;;;;5083734;28;21233;-58
2021/07/23 09:57:25;;;;;;;13.60;10.30;;;;;;;;;;5095237;28;20470;-61
2021/07/23 09:59:56;;;;;;;14.90;11.00;;;;;;;;;;5077400;28;20478;-60
2021/07/23 10:02:24;;;;;;;11.70;9.80;;;;;;;;;;5089896;28;20553;-59
2021/07/23 10:05:00;;;;;;;19.17;10.67;;;;;;;;;;5076132;28;20532;-63
2021/07/23 10:07:40;;;;;;;13.50;11.07;;;;;;;;;;5094432;28;20440;-59
2021/07/23 10:10:09;;;;;;;12.70;9.57;;;;;;;;;;5094641;28;20444;-57
2021/07/23 10:12:39;;;;;;;20.33;16.60;;;;;;;;;;5092943;28;20747;-60
2021/07/23 10:15:22;;;;;;;16.20;11.70;;;;;;;;;;5074872;28;20444;-58
2021/07/23 10:17:49;;;;;;;15.93;12.93;;;;;;;;;;5082904;28;20444;-60
2021/07/23 10:20:20;;;;;;;18.30;12.93;;;;;;;;;;5095345;28;20487;-60
2021/07/23 10:23:20;;;;;;;16.80;12.57;;;;;;;;;;5094546;28;20468;-63
2021/07/23 10:25:53;;;;;;;15.33;10.67;;;;;;;;;;5094544;28;20448;-59
2021/07/23 10:28:42;;;;;;;14.57;9.10;;;;;;;;;;5094523;28;20490;-57
2021/07/23 10:31:27;;;;;;;14.17;12.43;;;;;;;;;;5086036;28;20448;-60
2021/07/23 10:34:16;;;;;;;16.60;11.03;;;;;;;;;;5094551;28;20574;-59
2021/07/23 10:36:44;;;;;;;18.63;11.10;;;;;;;;;;5074775;28;20453;-61
2021/07/23 10:39:25;;;;;;;18.50;11.80;;;;;;;;;;5093139;28;20444;-57
2021/07/23 10:42:23;;;;;;;14.73;11.27;;;;;;;;;;5093988;28;20478;-63
2021/07/23 10:45:00;;;;;;;19.67;12.10;;;;;;;;;;5022746;28;20458;-61
2021/07/23 10:47:42;;;;;;;14.87;12.60;;;;;;;;;;5079099;28;20455;-62
2021/07/23 10:50:40;;;;;;;17.30;12.17;;;;;;;;;;5090843;28;20467;-58
2021/07/23 10:53:26;;;;;;;14.90;12.33;;;;;;;;;;5032538;28;20474;-58
2021/07/23 10:55:54;;;;;;;18.60;14.63;;;;;;;;;;5075492;28;20456;-60
2021/07/23 10:58:36;;;;;;;21.43;15.10;;;;;;;;;;5095512;28;20463;-59
2021/07/23 11:01:09;;;;;;;15.90;11.37;;;;;;;;;;5073912;28;20447;-60
2021/07/23 11:06:42;;;;;;;16.20;12.87;;;;;;;;;;5098763;28;20446;-60
2021/07/23 11:09:14;;;;;;;17.17;12.80;;;;;;;;;;5098413;28;20451;-61
2021/07/23 11:17:57;;;;;;;17.93;14.20;;;;;;;;;;5118931;28;20455;-60
2021/07/23 11:20:33;;;;;;;15.90;12.30;;;;;;;;;;5118125;28;20455;-60
2021/07/23 11:23:04;;;;;;;16.63;12.80;;;;;;;;;;5117451;28;20501;-61
2021/07/23 11:25:34;;;;;;;16.03;12.87;;;;;;;;;;5117818;28;20443;-60
2021/07/23 11:28:02;;;;;;;15.10;13.00;;;;;;;;;;5118936;28;20440;-61
2021/07/23 11:30:44;;;;;;;15.13;12.80;;;;;;;;;;5119151;28;20434;-59
2021/07/23 11:33:14;;;;;;;15.80;12.07;;;;;;;;;;5102145;28;20483;-61
2021/07/23 11:35:43;;;;;;;14.87;12.47;;;;;;;;;;5118843;28;20427;-61
2021/07/23 11:38:27;;;;;;;12.63;11.03;;;;;;;;;;5118758;28;20438;-57
2021/07/23 11:41:06;;;;;;;15.77;11.97;;;;;;;;;;5109885;28;20451;-59
2021/07/23 11:43:35;;;;;;;16.53;11.70;;;;;;;;;;5117409;28;20474;-58
2021/07/23 11:46:16;;;;;;;17.50;11.33;;;;;;;;;;5116983;28;20447;-59
2021/07/23 11:49:18;;;;;;;13.63;11.70;;;;;;;;;;5117915;28;20466;-60
2021/07/23 11:51:48;;;;;;;17.03;14.10;;;;;;;;;;5118098;28;20613;-58
2021/07/23 11:57:04;;;;;;;17.40;15.17;;;;;;;;;;5117213;28;20451;-57
2021/07/23 11:59:37;;;;;;;13.70;11.43;;;;;;;;;;5117775;28;20439;-60
2021/07/23 12:02:19;;;;;;;16.07;12.20;;;;;;;;;;5117312;28;20420;-58
2021/07/23 12:04:47;;;;;;;12.93;10.90;;;;;;;;;;5118664;28;20511;-56
2021/07/23 12:07:25;;;;;;;13.07;9.90;;;;;;;;;;5118726;28;20458;-55
2021/07/23 12:09:53;;;;;;;13.87;11.47;;;;;;;;;;5112292;28;20482;-62
2021/07/23 12:12:20;;;;;;;13.63;9.90;;;;;;;;;;5098624;28;20471;-61
2021/07/23 12:14:49;;;;;;;18.53;12.93;;;;;;;;;;5097857;28;20486;-62
2021/07/23 12:17:16;;;;;;;14.73;11.73;;;;;;;;;;5106666;28;20466;-60
2021/07/23 12:19:58;;;;;;;13.53;10.50;;;;;;;;;;5117911;28;20777;-61
2021/07/23 12:22:28;;;;;;;15.33;12.70;;;;;;;;;;5118294;28;20455;-60
2021/07/23 12:24:56;;;;;;;14.50;11.93;;;;;;;;;;5117164;28;20459;-61
2021/07/23 12:27:49;;;;;;;12.73;11.20;;;;;;;;;;5129765;28;20477;-61
2021/07/23 12:30:34;;;;;;;16.97;10.10;;;;;;;;;;5105996;28;20451;-61
2021/07/23 12:33:15;;;;;;;20.47;11.37;;;;;;;;;;5115712;28;20551;-61
2021/07/23 12:35:43;;;;;;;14.40;12.00;;;;;;;;;;5097423;28;20443;-59
2021/07/23 12:38:22;;;;;;;17.90;11.63;;;;;;;;;;5114803;27;20453;-57
2021/07/23 12:40:51;;;;;;;14.80;11.07;;;;;;;;;;5117380;27;20455;-58
2021/07/23 12:43:20;;;;;;;12.83;11.20;;;;;;;;;;5116230;28;20475;-60
2021/07/23 12:45:53;;;;;;;15.20;10.30;;;;;;;;;;5118203;28;20435;-59
2021/07/23 12:48:21;;;;;;;12.13;10.80;;;;;;;;;;5118679;28;20431;-55
2021/07/23 12:51:01;;;;;;;16.40;12.23;;;;;;;;;;5105051;28;20456;-60
2021/07/23 12:56:34;;;;;;;12.67;10.00;;;;;;;;;;5100129;28;20498;-60
2021/07/23 12:59:04;;;;;;;14.37;10.50;;;;;;;;;;5113906;28;20435;-60
2021/07/23 13:01:35;;;;;;;13.93;9.33;;;;;;;;;;5117529;28;20447;-61
2021/07/23 13:04:02;;;;;;;11.50;8.30;;;;;;;;;;5102942;28;20861;-61
2021/07/23 13:06:30;;;;;;;13.40;10.00;;;;;;;;;;5116715;28;20507;-60
2021/07/23 13:09:12;;;;;;;13.00;11.40;;;;;;;;;;5117571;28;20473;-61
2021/07/23 13:11:41;;;;;;;13.43;10.43;;;;;;;;;;5118128;28;20439;-61
2021/07/23 13:17:11;;;;;;;13.13;10.47;;;;;;;;;;5105827;28;20487;-61
2021/07/23 13:22:24;;;;;;;21.60;13.53;;;;;;;;;;5115696;28;20451;-57
2021/07/23 13:25:05;;;;;;;11.17;9.33;;;;;;;;;;5117008;28;20486;-63
2021/07/23 13:27:36;;;;;;;12.53;9.93;;;;;;;;;;5116383;28;20447;-61
2021/07/23 13:30:04;;;;;;;13.67;9.27;;;;;;;;;;5117102;28;20447;-58
2021/07/23 13:32:32;;;;;;;13.20;10.73;;;;;;;;;;5116534;28;20471;-61
2021/07/23 13:35:00;;;;;;;11.87;9.40;;;;;;;;;;5117099;28;20451;-59
2021/07/23 13:37:33;;;;;;;12.40;9.67;;;;;;;;;;5116767;28;20458;-58
2021/07/23 13:40:24;;;;;;;20.40;10.27;;;;;;;;;;5114908;28;20467;-59
2021/07/23 13:42:56;;;;;;;14.90;10.77;;;;;;;;;;5104686;28;20521;-60
2021/07/23 13:45:23;;;;;;;12.43;9.40;;;;;;;;;;5111836;28;20715;-60
2021/07/23 13:47:55;;;;;;;12.17;9.30;;;;;;;;;;5117124;28;20523;-63
2021/07/23 13:50:26;;;;;;;21.97;10.80;;;;;;;;;;5116075;28;20460;-58
2021/07/23 13:52:54;;;;;;;15.97;12.00;;;;;;;;;;5104260;28;20447;-60
2021/07/23 13:55:46;;;;;;;21.20;10.20;;;;;;;;;;5115094;28;20447;-59
2021/07/23 13:58:15;;;;;;;14.03;9.93;;;;;;;;;;5106259;28;20464;-59
2021/07/23 14:01:12;;;;;;;13.33;10.13;;;;;;;;;;5110999;28;20571;-60
2021/07/23 14:03:56;;;;;;;13.87;10.40;;;;;;;;;;5111566;28;20483;-60
2021/07/23 14:06:25;;;;;;;13.60;8.70;;;;;;;;;;5112316;28;20521;-60
2021/07/23 14:08:54;;;;;;;9.53;8.23;;;;;;;;;;5113633;28;20467;-60
2021/07/23 14:11:22;;;;;;;13.67;10.50;;;;;;;;;;5116288;28;20451;-58
2021/07/23 14:13:54;;;;;;;12.70;9.83;;;;;;;;;;5108624;28;20461;-60
2021/07/23 14:16:36;;;;;;;12.30;10.30;;;;;;;;;;5105031;28;20437;-59
2021/07/23 14:22:03;;;;;;;13.97;10.47;;;;;;;;;;5097813;28;20562;-58
2021/07/23 14:24:34;;;;;;;11.20;9.50;;;;;;;;;;5104175;28;20463;-58
2021/07/23 14:27:07;;;;;;;17.77;11.33;;;;;;;;;;5111074;28;20440;-58
2021/07/23 14:29:52;;;;;;;13.60;10.23;;;;;;;;;;5116639;28;20490;-60
2021/07/23 14:32:20;;;;;;;11.07;8.70;;;;;;;;;;5107173;28;20438;-60
2021/07/23 14:34:48;;;;;;;9.73;7.70;;;;;;;;;;5106825;28;20440;-59
2021/07/23 14:37:26;;;;;;;15.00;9.10;;;;;;;;;;5111215;28;20474;-58
2021/07/23 14:39:59;;;;;;;14.10;9.27;;;;;;;;;;5094697;28;20469;-61
2021/07/23 14:42:48;;;;;;;13.00;10.07;;;;;;;;;;5121209;28;20433;-60
2021/07/23 14:45:21;;;;;;;12.37;10.17;;;;;;;;;;5117831;28;20787;-60
2021/07/23 14:47:48;;;;;;;12.63;9.30;;;;;;;;;;5102246;28;20455;-60
2021/07/23 14:50:26;;;;;;;10.50;8.50;;;;;;;;;;5113194;28;20448;-60
2021/07/23 14:52:57;;;;;;;17.20;8.30;;;;;;;;;;5106216;28;20447;-57
2021/07/23 14:55:25;;;;;;;11.67;9.33;;;;;;;;;;5115682;28;20470;-56
2021/07/23 14:58:15;;;;;;;10.13;8.40;;;;;;;;;;5121217;28;20866;-60
2021/07/23 15:00:56;;;;;;;11.70;8.07;;;;;;;;;;5116061;28;20456;-59
2021/07/23 15:03:31;;;;;;;10.43;8.00;;;;;;;;;;5100409;28;20443;-61
2021/07/23 15:06:15;;;;;;;10.37;7.73;;;;;;;;;;5114067;28;20470;-61
2021/07/23 15:08:45;;;;;;;12.07;8.67;;;;;;;;;;5137657;28;20453;-60
2021/07/23 15:11:28;;;;;;;10.27;7.43;;;;;;;;;;5140071;28;20426;-61
2021/07/23 15:13:57;;;;;;;9.00;7.30;;;;;;;;;;5141043;28;20438;-60
2021/07/23 15:16:27;;;;;;;10.40;8.23;;;;;;;;;;5140583;28;20461;-59
2021/07/23 15:22:03;;;;;;;9.23;7.80;;;;;;;;;;5140539;28;20416;-60
2021/07/23 15:24:32;;;;;;;9.87;7.60;;;;;;;;;;5140313;28;20469;-59
2021/07/23 15:27:17;;;;;;;10.30;7.00;;;;;;;;;;5140584;28;20522;-60
2021/07/23 15:29:54;;;;;;;14.73;8.67;;;;;;;;;;5140312;28;20442;-60
2021/07/23 15:32:26;;;;;;;12.30;8.07;;;;;;;;;;5119907;28;20431;-61
2021/07/23 15:34:54;;;;;;;9.20;7.60;;;;;;;;;;5137648;28;20458;-60
2021/07/23 15:37:23;;;;;;;14.40;10.00;;;;;;;;;;5140709;28;20715;-61
2021/07/23 15:39:51;;;;;;;11.40;8.37;;;;;;;;;;5126484;28;20470;-60
2021/07/23 15:42:18;;;;;;;15.43;9.50;;;;;;;;;;5127744;28;20473;-57
2021/07/23 15:47:42;;;;;;;11.13;8.70;;;;;;;;;;5140168;27;20445;-60
2021/07/23 15:50:11;;;;;;;10.47;7.87;;;;;;;;;;5138357;27;20435;-62
2021/07/23 15:53:01;;;;;;;13.43;9.20;;;;;;;;;;5139535;28;20491;-58
2021/07/23 15:55:30;;;;;;;14.40;8.70;;;;;;;;;;5138387;28;20460;-61
2021/07/23 15:57:59;;;;;;;11.40;8.60;;;;;;;;;;5119563;28;20443;-60